Terminal Aerodrome Forecast
Issued by NWS

Home | Current Version | Previous Version | Text Only | Print | Product List | Glossary On
Versions: 1 2 3 4 5 6 7 8 9 10 11 12 13 14 15 16 17 18 19 20
000
FTUS44 KLUB 212300
TAFCDS
TAF
KCDS 212325Z 2200/2224 17010KT P6SM FEW150
     FM221600 18011KT P6SM BKN040 BKN150 PROB30 2218/2224 5SM -TSRA
      OVC040CB=

USA.gov is the U.S. government's official web portal to all federal, state and local government web resources and services.